Terminal Aerodrome Forecast
Issued by NWS

Home | Current Version | Previous Version | Text Only | Print | Product List | Glossary On
Versions: 1 2 3 4 5 6 7 8 9 10 11 12 13 14 15 16 17
000
FTUS45 KABQ 072320
TAFLVS
TAF
KLVS 072320Z 0800/0824 10013KT P6SM BKN200
     FM080600 09008KT P6SM BKN050
     FM081100 17009KT P6SM OVC025
      TEMPO 0812/0815 2SM BR OVC010
     FM081800 18014KT P6SM BKN050=

USA.gov is the U.S. government's official web portal to all federal, state and local government web resources and services.